Latest Weather Observations for Perth Airport

IDW60801

Issued at 11:04 am WST Monday 26 June 2017 (issued every 30 minutes, with the page automatically refreshed every 10 minutes)

About weather observations | Map of weather stations | Latest weather observations for WA | Other Formats
Station Details ID: 009021 Name: PERTH AIRPORT Lat: -31.93 Lon: 115.98 Height: 15.4 m
Data from the previous 72 hours. | See also: Recent months at Perth Airport
Date/Time
WST
Temp
°C
App
Temp
°C
Dew
Point
°C
Rel
Hum
%
Delta-T
°C
Wind Press
QNH
hPa
Press
MSL
hPa
Rain since
9am
mm
Dir  Spd
km/h
Gust
km/h
Spd
kts
Gust
kts
26/10:30am 15.2 10.1 2.9 43 5.5 ENE 19 26 10 14 1028.4 1028.4 0.0
26/10:00am 14.3 10.5 3.7 49 4.8 ENE 13 17 7 9 1028.8 1028.8 0.0
26/09:30am 12.3 10.1 5.3 62 3.2 NE 6 7 3 4 1028.9 1028.9 0.0
26/09:00am 9.6 6.7 4.6 71 2.2 NNE 9 11 5 6 1028.6 1028.6 0.0
26/08:30am 7.2 4.7 4.7 84 1.1 NNE 7 9 4 5 1028.4 1028.4 0.0
26/08:00am 7.0 4.0 4.2 82 1.2 NNE 9 13 5 7 1028.4 1028.4 0.0
26/07:30am 6.3 3.4 4.4 88 0.8 NNE 9 13 5 7 1028.1 1028.1 0.0
26/07:00am 5.3 4.1 4.4 94 0.4 CALM 0 11 0 6 1028.0 1028.0 0.0
26/06:30am 5.3 2.7 4.1 92 0.5 E 7 9 4 5 1027.7 1027.7 0.0
26/06:00am 5.5 4.3 4.6 94 0.4 CALM 0 6 0 3 1027.6 1027.6 0.0
26/05:30am 5.4 3.4 4.5 94 0.4 NE 4 9 2 5 1027.6 1027.6 0.0
26/05:00am 5.1 3.4 3.9 92 0.5 ENE 2 7 1 4 1027.6 1027.6 0.0
26/04:30am 4.3 2.9 3.6 95 0.3 CALM 0 0 0 0 1027.6 1027.6 0.0
26/04:00am 3.4 1.8 2.6 94 0.3 CALM 0 0 0 0 1027.8 1027.8 0.0
26/03:30am 3.0 1.4 2.2 94 0.3 CALM 0 0 0 0 1027.9 1027.9 0.0
26/03:00am 3.3 1.7 2.5 94 0.3 CALM 0 0 0 0 1027.9 1027.9 0.0
26/02:30am 3.7 2.1 2.7 93 0.4 CALM 0 0 0 0 1027.9 1027.9 0.0
26/02:00am 3.4 0.7 2.9 97 0.2 NNE 6 7 3 4 1027.7 1027.7 0.0
26/01:30am 3.2 0.4 2.2 93 0.4 NE 6 7 3 4 1027.6 1027.6 0.0
26/01:00am 3.7 1.0 2.7 93 0.4 ENE 6 7 3 4 1027.8 1027.8 0.0
26/12:30am 3.6 2.0 2.6 93 0.4 CALM 0 0 0 0 1027.8 1027.8 0.0
26/12:00am 4.3 1.5 3.1 92 0.5 NE 7 9 4 5 1027.9 1027.9 0.0
 
Date/Time
WST
Temp
°C
App
Temp
°C
Dew
Point
°C
Rel
Hum
%
Delta-T
°C
Wind Press
QNH
hPa
Press
MSL
hPa
Rain since
9am
mm
Dir  Spd
km/h
Gust
km/h
Spd
kts
Gust
kts
25/11:30pm 5.4 2.6 3.2 86 0.9 ESE 7 11 4 6 1028.1 1028.1 0.0
25/11:00pm 5.8 2.7 3.4 84 1.0 E 9 13 5 7 1028.2 1028.2 0.0
25/10:30pm 6.2 2.7 3.6 83 1.1 E 11 13 6 7 1027.8 1027.8 0.0
25/10:00pm 5.6 2.1 3.4 86 0.9 E 11 11 6 6 1027.8 1027.8 0.0
25/09:30pm 5.7 2.6 3.8 87 0.8 E 9 13 5 7 1027.8 1027.8 0.0
25/09:00pm 6.1 3.5 4.0 86 0.9 NE 7 9 4 5 1027.7 1027.7 0.0
25/08:30pm 6.8 3.8 4.0 82 1.2 ESE 9 15 5 8 1027.5 1027.5 0.0
25/08:00pm 7.9 3.4 4.2 77 1.6 SSE 17 20 9 11 1027.6 1027.6 0.0
25/07:30pm 9.7 5.6 4.2 68 2.4 SE 15 19 8 10 1027.3 1027.3 0.0
25/07:00pm 10.1 5.7 4.5 68 2.5 SE 17 20 9 11 1027.1 1027.1 0.0
25/06:30pm 10.9 6.4 4.4 64 2.9 SSE 17 22 9 12 1026.8 1026.8 0.0
25/06:00pm 11.3 7.3 4.9 65 2.9 SE 15 19 8 10 1026.4 1026.4 0.0
25/05:30pm 12.4 8.4 4.7 59 3.5 SE 15 19 8 10 1026.4 1026.4 0.0
25/05:00pm 13.8 9.3 4.4 53 4.3 SE 17 22 9 12 1026.4 1026.4 0.0
25/04:30pm 13.9 10.3 4.8 54 4.2 SSE 13 17 7 9 1026.5 1026.5 0.0
25/04:00pm 15.4 10.3 3.2 44 5.5 SE 19 26 10 14 1026.3 1026.3 0.0
25/03:30pm 15.1 10.1 3.7 46 5.2 ESE 19 28 10 15 1026.2 1026.2 0.0
25/03:00pm 16.2 11.6 3.8 43 5.7 ESE 17 24 9 13 1026.0 1026.0 0.0
25/02:30pm 15.3 10.6 3.4 45 5.4 E 17 30 9 16 1025.9 1025.9 0.0
25/02:00pm 15.2 10.7 4.1 47 5.1 ESE 17 26 9 14 1025.9 1025.9 0.0
25/01:30pm 15.9 11.7 4.0 45 5.5 SE 15 22 8 12 1026.3 1026.3 0.0
25/01:00pm 15.9 10.8 4.2 45 5.4 ENE 20 28 11 15 1026.5 1026.5 0.0
25/12:30pm 15.7 10.8 5.1 49 5.0 E 20 32 11 17 1027.0 1027.0 0.0
25/12:00pm 15.2 9.2 5.5 52 4.6 ENE 26 33 14 18 1027.6 1027.6 0.0
25/11:30am 15.1 8.5 5.9 54 4.4 E 30 39 16 21 1028.0 1028.0 0.0
25/11:00am 14.3 8.0 5.8 56 4.0 ENE 28 35 15 19 1028.4 1028.4 0.0
25/10:30am 13.4 8.3 6.2 61 3.4 E 22 32 12 17 1028.6 1028.6 0.0
25/10:00am 12.9 9.2 6.3 64 3.1 E 15 28 8 15 1028.7 1028.7 0.0
25/09:30am 12.6 9.4 6.7 67 2.8 ESE 13 22 7 12 1028.7 1028.7 0.0
25/09:00am 12.0 9.1 6.5 69 2.6 E 11 15 6 8 1028.5 1028.5 0.0
25/08:30am 10.8 8.3 6.5 75 2.0 ESE 9 13 5 7 1028.2 1028.2 0.0
25/08:00am 8.4 6.2 6.2 86 1.0 S 7 9 4 5 1027.9 1027.9 0.0
25/07:30am 7.4 3.6 5.6 88 0.8 S 15 17 8 9 1027.6 1027.6 0.0
25/07:00am 7.1 2.9 5.8 91 0.6 S 17 19 9 10 1027.3 1027.3 0.0
25/06:30am 6.3 2.1 5.8 97 0.2 SSW 17 20 9 11 1026.9 1026.9 0.0
25/06:00am 5.8 2.2 4.9 94 0.4 SSW 13 15 7 8 1026.8 1026.8 0.0
25/05:30am 5.3 2.0 4.8 97 0.2 SSW 11 13 6 7 1026.5 1026.5 0.0
25/05:00am 5.5 2.3 5.0 97 0.2 SW 11 13 6 7 1026.6 1026.6 0.0
25/04:30am 6.9 3.9 5.8 93 0.5 SSW 11 13 6 7 1026.6 1026.6 0.0
25/04:00am 5.4 1.8 4.9 97 0.2 S 13 15 7 8 1026.6 1026.6 0.0
25/03:30am 6.6 3.2 5.9 95 0.3 S 13 15 7 8 1026.8 1026.8 0.0
25/03:00am 7.7 4.1 6.6 93 0.5 S 15 17 8 9 1026.8 1026.8 0.0
25/02:30am 8.2 5.0 6.7 90 0.7 SSE 13 17 7 9 1027.0 1027.0 0.0
25/02:00am 8.3 4.3 6.6 89 0.8 SSE 17 19 9 10 1026.9 1026.9 0.0
25/01:30am 8.9 4.6 7.0 88 0.9 S 19 22 10 12 1027.0 1027.0 0.0
25/01:00am 9.2 5.3 7.1 87 1.0 SSE 17 19 9 10 1026.9 1026.9 0.0
25/12:30am 9.4 5.8 6.8 84 1.2 S 15 17 8 9 1026.8 1026.8 0.0
25/12:00am 8.4 5.1 6.2 86 1.0 S 13 15 7 8 1026.8 1026.8 0.0
 
Date/Time
WST
Temp
°C
App
Temp
°C
Dew
Point
°C
Rel
Hum
%
Delta-T
°C
Wind Press
QNH
hPa
Press
MSL
hPa
Rain since
9am
mm
Dir  Spd
km/h
Gust
km/h
Spd
kts
Gust
kts
24/11:30pm 7.5 3.7 5.9 90 0.7 S 15 17 8 9 1026.9 1026.9 0.0
24/11:00pm 7.1 3.9 5.3 88 0.8 SSE 11 13 6 7 1026.8 1026.8 0.0
24/10:30pm 7.4 3.6 5.6 88 0.8 S 15 17 8 9 1026.6 1026.6 0.0
24/10:00pm 8.9 6.2 5.8 81 1.4 SSE 9 11 5 6 1026.3 1026.3 0.0
24/09:30pm 9.7 6.6 5.5 75 1.9 S 11 13 6 7 1026.1 1026.1 0.0
24/09:00pm 8.4 5.0 5.7 83 1.2 S 13 17 7 9 1026.0 1026.0 0.0
24/08:30pm 10.4 6.6 5.8 73 2.1 S 15 20 8 11 1025.9 1025.9 0.0
24/08:00pm 10.7 6.8 5.4 70 2.4 S 15 20 8 11 1025.8 1025.8 0.0
24/07:30pm 12.0 8.4 5.2 63 3.1 S 13 17 7 9 1025.5 1025.5 0.0
24/07:00pm 12.6 8.7 5.2 60 3.4 SSE 15 17 8 9 1025.3 1025.3 0.0
24/06:30pm 13.3 9.1 5.6 59 3.6 SE 17 22 9 12 1025.2 1025.2 0.0
24/06:00pm 13.9 9.1 4.8 54 4.2 SE 19 26 10 14 1024.8 1024.8 0.0
24/05:30pm 14.8 10.1 5.2 52 4.5 SE 19 24 10 13 1024.4 1024.4 0.0
24/05:00pm 15.7 10.8 5.1 49 5.0 SE 20 28 11 15 1024.1 1024.1 0.0
24/04:30pm 16.5 11.5 4.8 46 5.5 ESE 20 30 11 16 1023.8 1023.8 0.0
24/04:00pm 16.4 10.3 5.0 47 5.4 SE 26 35 14 19 1023.6 1023.6 0.0
24/03:30pm 17.0 12.4 5.6 47 5.5 E 19 26 10 14 1023.5 1023.5 0.0
24/03:00pm 17.5 11.9 5.5 45 5.8 SE 24 33 13 18 1023.5 1023.5 0.0
24/02:30pm 17.1 11.6 5.7 47 5.5 ESE 24 30 13 16 1023.4 1023.4 0.0
24/02:00pm 17.7 13.0 6.0 46 5.7 ESE 20 28 11 15 1023.4 1023.4 0.0
24/01:30pm 17.5 13.4 6.3 47 5.5 ESE 17 28 9 15 1023.5 1023.5 0.0
24/01:00pm 17.0 12.3 6.1 48 5.3 E 20 30 11 16 1023.9 1023.9 0.0
24/12:30pm 17.3 12.0 6.8 50 5.2 ESE 24 33 13 18 1024.2 1024.2 0.0
24/12:00pm 16.8 12.3 6.9 52 4.9 SE 20 32 11 17 1024.7 1024.7 0.0
24/11:30am 16.5 11.6 6.7 52 4.8 E 22 32 12 17 1024.9 1024.9 0.0
24/11:00am 16.0 11.4 6.5 53 4.6 E 20 28 11 15 1025.3 1025.3 0.0
24/10:30am 15.7 11.8 6.9 56 4.3 E 17 30 9 16 1025.7 1025.7 0.0
24/10:00am 15.1 11.1 6.6 57 4.1 ESE 17 24 9 13 1025.9 1025.9 0.0
24/09:30am 14.6 11.6 6.2 57 4.0 SE 11 17 6 9 1025.9 1025.9 0.0
24/09:00am 13.7 10.7 6.1 60 3.6 E 11 20 6 11 1025.8 1025.8 0.2
24/08:30am 13.3 8.7 5.8 60 3.5 ESE 19 39 10 21 1025.6 1025.6 0.2
24/08:00am 12.1 7.9 5.9 66 2.9 E 17 22 9 12 1025.3 1025.3 0.2
24/07:30am 11.7 6.9 5.4 65 2.9 E 20 37 11 20 1024.8 1024.8 0.2
24/07:00am 11.1 6.3 5.7 69 2.5 E 20 30 11 16 1024.7 1024.7 0.2
24/06:30am 11.6 7.7 5.5 66 2.8 E 15 32 8 17 1024.4 1024.4 0.2
24/06:00am 11.6 7.4 5.5 66 2.8 ENE 17 30 9 16 1024.2 1024.2 0.2
24/05:30am 12.1 6.9 5.4 63 3.1 E 22 32 12 17 1023.9 1023.9 0.2
24/05:00am 12.0 6.4 5.5 64 3.0 E 24 37 13 20 1023.8 1023.8 0.2
24/04:30am 12.1 7.3 5.4 63 3.1 ESE 20 35 11 19 1024.0 1024.0 0.2
24/04:00am 12.3 8.1 5.6 63 3.1 ESE 17 32 9 17 1024.0 1024.0 0.2
24/03:30am 12.5 8.7 5.9 64 3.1 E 15 32 8 17 1024.3 1024.3 0.2
24/03:00am 12.5 7.9 6.4 66 2.9 E 20 30 11 16 1024.3 1024.3 0.2
24/02:30am 12.7 10.2 6.6 66 2.9 NE 9 17 5 9 1024.4 1024.4 0.2
24/02:00am 13.0 11.0 7.2 68 2.8 ENE 7 13 4 7 1024.2 1024.2 0.2
24/01:30am 12.7 9.7 7.5 70 2.5 NE 13 22 7 12 1024.0 1024.0 0.2
24/01:00am 12.7 9.3 7.5 70 2.5 ESE 15 22 8 12 1024.1 1024.1 0.2
24/12:30am 12.9 8.6 8.0 72 2.4 SE 20 30 11 16 1024.2 1024.2 0.2
24/12:00am 13.3 8.7 8.2 71 2.5 ESE 22 35 12 19 1024.3 1024.3 0.2
 
Date/Time
WST
Temp
°C
App
Temp
°C
Dew
Point
°C
Rel
Hum
%
Delta-T
°C
Wind Press
QNH
hPa
Press
MSL
hPa
Rain since
9am
mm
Dir  Spd
km/h
Gust
km/h
Spd
kts
Gust
kts
23/11:30pm 14.1 9.6 8.5 69 2.8 ESE 22 33 12 18 1024.0 1024.0 0.2
23/11:00pm 14.3 8.8 9.2 71 2.6 ESE 28 35 15 19 1023.7 1023.7 0.2
23/10:30pm 14.7 9.2 9.2 69 2.8 ESE 28 39 15 21 1023.7 1023.7 0.2
23/10:00pm 14.9 10.3 9.7 71 2.7 ESE 24 35 13 19 1023.5 1023.5 0.2
23/09:30pm 15.0 11.4 9.8 71 2.7 SE 19 30 10 16 1023.3 1023.3 0.2
23/09:00pm 15.0 11.8 10.0 72 2.6 SE 17 24 9 13 1023.1 1023.1 0.2
23/08:30pm 14.9 11.7 10.1 73 2.5 SE 17 30 9 16 1022.8 1022.8 0.2
23/08:00pm 14.9 11.2 10.3 74 2.4 ESE 20 28 11 15 1022.5 1022.5 0.2
23/07:30pm 15.1 10.7 10.3 73 2.5 SE 24 33 13 18 1022.3 1022.3 0.2
23/07:00pm 15.2 11.8 10.6 74 2.4 ESE 19 26 10 14 1022.1 1022.1 0.2
23/06:30pm 15.2 11.8 10.6 74 2.4 SE 19 24 10 13 1021.8 1021.8 0.2
23/06:00pm 15.9 12.6 10.8 71 2.7 ESE 19 28 10 15 1021.3 1021.3 0.2
23/05:30pm 16.4 12.7 10.3 67 3.2 ESE 20 28 11 15 1020.8 1020.8 0.2
23/05:00pm 16.8 12.5 10.6 67 3.3 ESE 24 33 13 18 1020.4 1020.4 0.2
23/04:30pm 17.6 11.5 10.5 63 3.8 ESE 33 44 18 24 1020.1 1020.1 0.2
23/04:00pm 18.1 12.6 10.6 61 4.0 ESE 30 39 16 21 1019.8 1019.8 0.2
23/03:30pm 17.7 12.0 11.0 65 3.6 ESE 32 41 17 22 1019.6 1019.6 0.2
23/03:00pm 19.0 14.0 11.1 60 4.3 SE 28 41 15 22 1019.5 1019.5 0.2
23/02:30pm 18.1 13.5 11.1 63 3.8 SE 26 35 14 19 1019.4 1019.4 0.2
23/02:00pm 17.4 12.8 10.9 65 3.5 SE 26 35 14 19 1019.3 1019.3 0.2
23/01:30pm 17.6 13.8 11.3 66 3.4 SE 22 44 12 24 1019.4 1019.4 0.2
23/01:03pm 18.2 12.9 11.2 63 3.8 ESE 30 48 16 26 1019.4 1019.4 0.2
23/01:00pm 18.0 12.3 11.0 63 3.8 ESE 32 48 17 26 1019.3 1019.3 0.2
23/12:30pm 17.6 10.7 11.7 68 3.2 ESE 39 52 21 28 1019.4 1019.4 0.2
23/12:00pm 17.2 11.7 11.7 70 3.0 ESE 32 48 17 26 1019.6 1019.6 0.2
23/11:35am 16.9 11.8 11.8 72 2.8 ESE 30 48 16 26 1020.0 1020.0 0.0
23/11:30am 17.2 11.8 12.1 72 2.8 ESE 32 41 17 22 1020.0 1020.0 0.0

Other Formats:

Comma delimited format used in spreadsheet applications
http://www.bom.gov.au/fwo/IDW60801/IDW60801.94610.axf

JavaScript Object Notation format (JSON) in row-major order
http://www.bom.gov.au/fwo/IDW60801/IDW60801.94610.json